Time;durP1;ratioP1;P1;durP2;ratioP2;P2;SDS_P1;SDS_P2;PMS_P1;PMS_P2;Temp;Humidity;BMP_temperature;BMP_pressure;BME280_temperature;BME280_humidity;BME280_pressure;Samples;Min_cycle;Max_cycle;Signal;HPM_P1;HPM_P2
2022/03/09 00:00:36;;;;;;;16.73;10.15;;;;;;;-2.02;100.00;101100.81;5089886;28;20029;-64
2022/03/09 00:03:02;;;;;;;17.45;11.35;;;;;;;-1.94;100.00;101094.03;5073929;28;20372;-64
2022/03/09 00:05:27;;;;;;;15.73;10.95;;;;;;;-1.94;100.00;101089.75;5074115;28;20048;-64
2022/03/09 00:07:52;;;;;;;15.68;11.38;;;;;;;-1.96;100.00;101088.88;5089505;28;20024;-64
2022/03/09 00:10:18;;;;;;;17.05;10.82;;;;;;;-2.01;100.00;101093.13;5073988;28;20104;-64
2022/03/09 00:12:43;;;;;;;16.23;10.93;;;;;;;-2.06;100.00;101093.03;5073738;28;20048;-64
2022/03/09 00:15:09;;;;;;;15.90;11.02;;;;;;;-2.07;100.00;101096.50;5073859;28;20471;-64
2022/03/09 00:17:34;;;;;;;19.58;11.85;;;;;;;-2.06;100.00;101085.31;5073496;28;20035;-64
2022/03/09 00:19:59;;;;;;;16.48;10.98;;;;;;;-2.06;100.00;101098.19;5073737;28;20063;-64
2022/03/09 00:22:25;;;;;;;20.63;11.27;;;;;;;-2.09;100.00;101094.72;5073238;28;20017;-64
2022/03/09 00:24:50;;;;;;;18.98;12.05;;;;;;;-2.13;100.00;101092.97;5073514;28;20021;-64
2022/03/09 00:27:16;;;;;;;22.27;12.13;;;;;;;-2.17;100.00;101097.22;5073686;28;20406;-64
2022/03/09 00:29:41;;;;;;;21.05;11.02;;;;;;;-2.17;100.00;101096.34;5073582;28;20482;-64
2022/03/09 00:32:07;;;;;;;15.18;11.40;;;;;;;-2.17;100.00;101102.38;5073708;28;20029;-64
2022/03/09 00:34:33;;;;;;;15.02;11.00;;;;;;;-2.20;100.00;101106.63;5073403;28;20017;-64
2022/03/09 00:36:58;;;;;;;16.65;10.65;;;;;;;-2.25;100.00;101109.13;5089392;28;20028;-64
2022/03/09 00:39:24;;;;;;;21.80;11.32;;;;;;;-2.30;100.00;101105.59;5073747;28;20028;-64
2022/03/09 00:41:49;;;;;;;15.25;11.45;;;;;;;-2.31;100.00;101106.47;5073347;28;20351;-64
2022/03/09 00:44:15;;;;;;;16.45;11.13;;;;;;;-2.31;100.00;101109.03;5073485;28;20463;-64
2022/03/09 00:46:40;;;;;;;19.98;11.63;;;;;;;-2.33;100.00;101105.56;5071426;28;20036;-64
2022/03/09 00:49:05;;;;;;;21.58;12.32;;;;;;;-2.40;100.00;101103.75;5073281;28;20071;-64
2022/03/09 00:51:31;;;;;;;15.93;10.63;;;;;;;-2.43;100.00;101103.72;5062273;28;20079;-64
2022/03/09 00:53:56;;;;;;;16.48;11.15;;;;;;;-2.44;100.00;101096.00;5073102;28;20020;-64
2022/03/09 00:56:22;;;;;;;16.85;11.02;;;;;;;-2.44;100.00;101090.84;5073252;28;20059;-64
2022/03/09 00:58:48;;;;;;;16.70;11.23;;;;;;;-2.44;100.00;101093.44;5054988;28;20033;-64
2022/03/09 01:01:13;;;;;;;19.13;11.20;;;;;;;-2.44;100.00;101090.84;5069029;28;20494;-63
2022/03/09 01:03:39;;;;;;;16.83;11.52;;;;;;;-2.46;100.00;101098.53;5073254;28;20021;-64
2022/03/09 01:06:04;;;;;;;16.88;11.80;;;;;;;-2.49;100.00;101098.50;5072964;28;20020;-64
2022/03/09 01:08:30;;;;;;;19.42;12.32;;;;;;;-2.56;100.00;101094.09;5072919;28;20032;-64
2022/03/09 01:10:55;;;;;;;20.52;11.52;;;;;;;-2.54;100.00;101095.00;5072965;28;20111;-64
2022/03/09 01:13:21;;;;;;;17.55;10.77;;;;;;;-2.59;100.00;101096.63;5055240;28;20036;-64
2022/03/09 01:15:47;;;;;;;22.38;12.00;;;;;;;-2.60;100.00;101089.75;5073156;28;20020;-64
2022/03/09 01:18:12;;;;;;;15.52;11.00;;;;;;;-2.54;100.00;101094.13;5072896;28;20706;-64
2022/03/09 01:20:38;;;;;;;17.00;11.25;;;;;;;-2.53;100.00;101091.56;5087034;28;20085;-64
2022/03/09 01:23:03;;;;;;;18.17;11.32;;;;;;;-2.45;100.00;101094.25;5087682;28;20024;-64
2022/03/09 01:25:28;;;;;;;15.88;9.95;;;;;;;-2.41;100.00;101091.75;5072716;28;20504;-64
2022/03/09 01:27:54;;;;;;;17.13;10.95;;;;;;;-2.40;100.00;101084.91;5071437;28;20479;-64
2022/03/09 01:30:19;;;;;;;15.48;9.95;;;;;;;-2.43;100.00;101079.72;5072392;28;20028;-64
2022/03/09 01:32:44;;;;;;;15.30;9.73;;;;;;;-2.42;100.00;101084.88;5072585;28;20025;-64
2022/03/09 01:35:10;;;;;;;16.17;10.07;;;;;;;-2.45;100.00;101089.09;5072489;28;20017;-64
2022/03/09 01:37:35;;;;;;;14.68;9.73;;;;;;;-2.54;100.00;101069.28;5072631;28;20069;-64
2022/03/09 01:40:01;;;;;;;16.27;10.00;;;;;;;-2.45;100.00;101084.84;5073060;28;20111;-64
2022/03/09 01:42:26;;;;;;;15.73;11.25;;;;;;;-2.46;100.00;101090.81;5063649;28;20031;-64
2022/03/09 01:44:52;;;;;;;16.00;9.70;;;;;;;-2.45;100.00;101084.84;5072289;28;20467;-64
2022/03/09 01:47:17;;;;;;;14.65;10.45;;;;;;;-2.47;100.00;101078.81;5072719;28;20029;-64
2022/03/09 01:49:43;;;;;;;18.52;10.05;;;;;;;-2.43;100.00;101078.00;5072075;28;20081;-64
2022/03/09 01:52:08;;;;;;;15.05;9.77;;;;;;;-2.44;100.00;101076.28;5072731;28;20439;-64
2022/03/09 01:54:34;;;;;;;14.77;10.10;;;;;;;-2.46;100.00;101075.38;5072315;28;20020;-64
2022/03/09 01:56:59;;;;;;;16.45;9.98;;;;;;;-2.48;100.00;101065.94;5072301;28;20024;-63
2022/03/09 01:59:25;;;;;;;18.13;11.45;;;;;;;-2.45;100.00;101069.41;5072335;28;20025;-63
2022/03/09 02:01:51;;;;;;;17.10;10.18;;;;;;;-2.48;100.00;101071.94;5054744;28;20046;-64
2022/03/09 02:04:17;;;;;;;15.57;10.38;;;;;;;-2.52;100.00;101070.16;5072291;28;20486;-64
2022/03/09 02:06:43;;;;;;;15.05;10.02;;;;;;;-2.56;100.00;101065.81;5087825;28;20036;-64
2022/03/09 02:11:54;;;;;;;16.45;10.60;;;;;;;-2.63;100.00;101067.44;5085044;28;20035;-63
2022/03/09 02:14:31;;;;;;;13.70;9.55;;;;;;;-2.62;100.00;101065.75;5071358;28;20021;-63
2022/03/09 02:16:58;;;;;;;18.55;10.93;;;;;;;-2.66;100.00;101069.97;5053141;28;20035;-64
2022/03/09 02:19:23;;;;;;;18.70;11.35;;;;;;;-2.68;100.00;101066.53;5053940;28;20129;-63
2022/03/09 02:22:02;;;;;;;17.08;10.80;;;;;;;-2.71;100.00;101066.50;5072222;28;20067;-64
2022/03/09 02:24:30;;;;;;;15.60;10.15;;;;;;;-2.76;100.00;101062.97;5072156;28;20441;-63
2022/03/09 02:26:55;;;;;;;17.15;10.38;;;;;;;-2.77;100.00;101065.53;5071969;28;20052;-64
2022/03/09 02:29:20;;;;;;;18.17;11.20;;;;;;;-2.79;100.00;101062.06;5072254;28;20067;-63
2022/03/09 02:31:46;;;;;;;17.92;10.52;;;;;;;-2.82;100.00;101072.31;5072306;28;20028;-63
2022/03/09 02:34:11;;;;;;;16.63;10.13;;;;;;;-2.87;100.00;101072.22;5072298;28;20036;-63
2022/03/09 02:36:37;;;;;;;21.23;11.63;;;;;;;-2.92;100.00;101079.03;5065476;28;20398;-63
2022/03/09 02:39:02;;;;;;;17.63;11.57;;;;;;;-2.95;100.00;101067.81;5071151;28;20035;-63
2022/03/09 02:41:29;;;;;;;17.45;10.93;;;;;;;-2.97;100.00;101066.97;5074942;28;20039;-63
2022/03/09 02:43:55;;;;;;;16.13;10.98;;;;;;;-2.98;100.00;101071.22;5075749;28;20032;-63
2022/03/09 02:46:20;;;;;;;16.95;10.25;;;;;;;-3.02;100.00;101068.56;5075896;28;20094;-63
2022/03/09 02:48:49;;;;;;;18.58;11.32;;;;;;;-3.06;100.00;101077.06;5075845;28;20020;-63
2022/03/09 02:51:14;;;;;;;16.92;11.75;;;;;;;-3.11;100.00;101067.56;5090620;28;20025;-63
2022/03/09 02:53:40;;;;;;;19.33;11.18;;;;;;;-3.10;100.00;101064.19;5075336;28;20042;-63
2022/03/09 02:56:05;;;;;;;17.27;12.60;;;;;;;-3.06;100.00;101064.22;5075791;28;20143;-63
2022/03/09 02:58:31;;;;;;;16.35;11.48;;;;;;;-3.05;100.00;101069.41;5075756;28;20031;-63
2022/03/09 03:00:56;;;;;;;20.20;11.82;;;;;;;-3.07;100.00;101060.78;5075551;28;20020;-63
2022/03/09 03:03:21;;;;;;;23.13;12.48;;;;;;;-3.10;100.00;101056.47;5075425;28;20489;-63
2022/03/09 03:05:47;;;;;;;15.60;10.85;;;;;;;-3.08;100.00;101061.66;5075287;28;20493;-63
2022/03/09 03:08:13;;;;;;;19.02;11.20;;;;;;;-3.12;100.00;101057.28;5075475;28;20386;-63
2022/03/09 03:10:38;;;;;;;20.83;11.48;;;;;;;-3.23;100.00;101053.69;5075198;28;20033;-63
2022/03/09 03:13:04;;;;;;;16.02;11.20;;;;;;;-3.25;100.00;101066.53;5075460;28;20474;-63
2022/03/09 03:15:29;;;;;;;16.95;11.52;;;;;;;-3.27;100.00;101063.03;5074676;28;20455;-63
2022/03/09 03:17:54;;;;;;;20.73;13.18;;;;;;;-3.25;100.00;101063.94;5075329;28;20036;-63
2022/03/09 03:20:20;;;;;;;18.45;12.85;;;;;;;-3.25;100.00;101069.09;5054735;28;20027;-63
2022/03/09 03:22:45;;;;;;;16.52;12.27;;;;;;;-3.29;100.00;101067.31;5071644;28;20090;-64
2022/03/09 03:25:10;;;;;;;17.83;11.15;;;;;;;-3.36;100.00;101062.91;5074931;28;20035;-63
2022/03/09 03:27:36;;;;;;;15.93;12.30;;;;;;;-3.38;100.00;101059.44;5072851;28;20031;-64
2022/03/09 03:30:02;;;;;;;19.02;13.32;;;;;;;-3.34;100.00;101061.22;5075439;28;20036;-63
2022/03/09 03:32:27;;;;;;;15.95;11.90;;;;;;;-3.39;100.00;101050.00;5075042;28;20380;-63
2022/03/09 03:34:52;;;;;;;15.38;10.88;;;;;;;-3.36;100.00;101062.91;5074462;28;20071;-63
2022/03/09 03:37:18;;;;;;;20.35;12.18;;;;;;;-3.43;100.00;101061.06;5074815;28;20025;-63
2022/03/09 03:39:43;;;;;;;20.25;12.57;;;;;;;-3.43;100.00;101065.34;5074920;28;20021;-64
2022/03/09 03:42:08;;;;;;;19.25;12.43;;;;;;;-3.44;100.00;101061.91;5074821;28;20029;-63
2022/03/09 03:44:34;;;;;;;25.80;12.98;;;;;;;-3.40;100.00;101060.25;5074815;28;20036;-63
2022/03/09 03:46:59;;;;;;;20.33;13.35;;;;;;;-3.43;100.00;101061.06;5072704;28;20442;-63
2022/03/09 03:49:24;;;;;;;18.02;12.43;;;;;;;-3.46;100.00;101060.16;5069425;28;20035;-63
2022/03/09 03:51:50;;;;;;;19.48;12.18;;;;;;;-3.48;100.00;101057.53;5074682;28;20368;-63
2022/03/09 03:54:16;;;;;;;20.17;13.23;;;;;;;-3.50;100.00;101055.78;5074560;28;20397;-63
2022/03/09 03:56:41;;;;;;;19.20;12.52;;;;;;;-3.50;100.00;101053.22;5074348;28;20369;-64
2022/03/09 03:59:06;;;;;;;23.10;13.38;;;;;;;-3.52;100.00;101055.78;5074442;28;20043;-63
2022/03/09 04:01:32;;;;;;;17.95;12.05;;;;;;;-3.57;100.00;101056.53;5074828;28;20025;-63
2022/03/09 04:03:57;;;;;;;18.52;12.07;;;;;;;-3.63;100.00;101054.72;5071531;28;20035;-63
2022/03/09 04:06:22;;;;;;;20.63;12.32;;;;;;;-3.64;100.00;101055.56;5074207;28;20422;-64
2022/03/09 04:08:48;;;;;;;20.10;13.57;;;;;;;-3.67;100.00;101050.38;5071461;28;20024;-64
2022/03/09 04:11:13;;;;;;;16.13;12.15;;;;;;;-3.70;100.00;101053.75;5073858;28;20482;-64
2022/03/09 04:13:39;;;;;;;19.20;12.73;;;;;;;-3.73;100.00;101056.28;5089784;28;20024;-64
2022/03/09 04:16:04;;;;;;;17.30;13.15;;;;;;;-3.72;100.00;101057.16;5074063;28;20107;-64
2022/03/09 04:18:29;;;;;;;19.40;13.30;;;;;;;-3.81;100.00;101046.69;5071122;28;20024;-63
2022/03/09 04:20:55;;;;;;;19.38;13.07;;;;;;;-3.73;100.00;101052.84;5071870;28;20115;-63
2022/03/09 04:23:20;;;;;;;21.17;13.77;;;;;;;-3.73;100.00;101058.84;5073678;28;20020;-63
2022/03/09 04:25:45;;;;;;;23.83;14.07;;;;;;;-3.72;100.00;101052.84;5073309;28;20047;-63
2022/03/09 04:28:11;;;;;;;20.48;12.80;;;;;;;-3.72;100.00;101054.56;5073959;28;20043;-63
2022/03/09 04:30:36;;;;;;;23.25;12.88;;;;;;;-3.73;100.00;101057.97;5073929;28;20052;-63
2022/03/09 04:33:02;;;;;;;18.70;12.65;;;;;;;-3.75;100.00;101057.09;5073261;28;20020;-63
2022/03/09 04:35:27;;;;;;;16.20;12.27;;;;;;;-3.81;100.00;101049.25;5073822;28;20036;-63
2022/03/09 04:37:53;;;;;;;23.60;13.77;;;;;;;-3.80;100.00;101054.44;5073606;28;20457;-63
2022/03/09 04:40:18;;;;;;;22.50;13.50;;;;;;;-3.83;100.00;101051.81;5073636;28;20024;-63
2022/03/09 04:42:43;;;;;;;17.73;13.20;;;;;;;-3.82;100.00;101052.69;5072356;28;20029;-63
2022/03/09 04:45:10;;;;;;;21.35;13.20;;;;;;;-3.81;100.00;101051.81;5068037;28;20450;-63
2022/03/09 04:47:35;;;;;;;19.80;12.35;;;;;;;-3.83;100.00;101043.25;5073635;28;20467;-63
2022/03/09 04:50:01;;;;;;;18.55;13.18;;;;;;;-3.81;100.00;101056.97;5070757;28;20017;-63
2022/03/09 04:52:26;;;;;;;17.25;12.88;;;;;;;-3.87;100.00;101055.16;5069795;28;20905;-63
2022/03/09 04:54:51;;;;;;;19.50;13.18;;;;;;;-3.92;100.00;101048.22;5073008;28;20100;-63
2022/03/09 04:57:17;;;;;;;21.95;14.23;;;;;;;-3.97;100.00;101044.69;5072976;28;20020;-63
2022/03/09 04:59:43;;;;;;;21.85;13.30;;;;;;;-3.94;100.00;101047.31;5088918;28;20499;-63
2022/03/09 05:02:09;;;;;;;21.60;12.65;;;;;;;-4.07;100.00;101037.66;5072728;28;20402;-63
2022/03/09 05:04:34;;;;;;;17.48;12.32;;;;;;;-4.05;100.00;101047.09;5071281;28;20028;-63
2022/03/09 05:07:00;;;;;;;22.38;13.68;;;;;;;-4.10;100.00;101053.84;5073176;28;20071;-63
2022/03/09 05:09:25;;;;;;;20.70;11.95;;;;;;;-4.12;100.00;101055.50;5073016;28;20117;-63
2022/03/09 05:11:51;;;;;;;24.27;13.32;;;;;;;-4.14;100.00;101052.94;5072986;28;20020;-63
2022/03/09 05:14:16;;;;;;;18.63;12.75;;;;;;;-4.12;100.00;101056.38;5073385;28;20082;-62
2022/03/09 05:16:41;;;;;;;20.10;13.13;;;;;;;-4.10;100.00;101053.00;5073118;28;20020;-62
2022/03/09 05:19:07;;;;;;;19.58;13.70;;;;;;;-4.10;100.00;101058.13;5073080;28;20117;-62
2022/03/09 05:21:32;;;;;;;18.85;13.13;;;;;;;-4.12;100.00;101056.38;5071790;28;20034;-62
2022/03/09 05:23:57;;;;;;;20.88;13.15;;;;;;;-4.16;100.00;101069.13;5072666;28;20033;-64
2022/03/09 05:26:23;;;;;;;18.00;13.65;;;;;;;-4.24;100.00;101065.53;5073197;28;20036;-64
2022/03/09 05:28:48;;;;;;;21.38;13.30;;;;;;;-4.25;100.00;101067.25;5073264;28;20451;-64
2022/03/09 05:31:14;;;;;;;18.23;12.30;;;;;;;-4.26;100.00;101070.63;5073292;28;20402;-64
2022/03/09 05:33:39;;;;;;;18.40;13.52;;;;;;;-4.27;100.00;101076.63;5071426;28;20386;-63
2022/03/09 05:36:04;;;;;;;19.08;12.93;;;;;;;-4.26;100.00;101078.31;5072890;28;20380;-63
2022/03/09 05:38:30;;;;;;;19.25;13.05;;;;;;;-4.25;100.00;101080.06;5072656;28;20115;-63
2022/03/09 05:40:56;;;;;;;21.15;13.57;;;;;;;-4.27;100.00;101081.75;5072818;28;20048;-62
2022/03/09 05:43:21;;;;;;;22.23;13.63;;;;;;;-4.29;100.00;101083.41;5068368;28;20025;-62
2022/03/09 05:45:47;;;;;;;21.60;12.38;;;;;;;-4.29;100.00;101083.41;5072439;28;20040;-62
2022/03/09 05:48:12;;;;;;;18.73;12.02;;;;;;;-4.30;100.00;101081.69;5072525;28;20056;-63
2022/03/09 05:50:38;;;;;;;16.52;11.52;;;;;;;-4.26;100.00;101088.59;5072625;28;20029;-62
2022/03/09 05:53:03;;;;;;;19.17;12.68;;;;;;;-4.25;100.00;101089.44;5072123;28;20024;-62
2022/03/09 05:55:28;;;;;;;16.48;11.32;;;;;;;-4.31;100.00;101085.06;5072507;28;20495;-62
2022/03/09 05:57:54;;;;;;;15.90;11.60;;;;;;;-4.31;100.00;101090.19;5072892;28;20103;-62
2022/03/09 06:00:19;;;;;;;17.23;12.32;;;;;;;-4.32;100.00;101097.84;5072173;28;20139;-62
2022/03/09 06:02:45;;;;;;;18.88;13.13;;;;;;;-4.28;100.00;101095.38;5071659;28;20028;-62
2022/03/09 06:05:10;;;;;;;18.10;12.13;;;;;;;-4.27;100.00;101097.13;5072962;28;20506;-62
2022/03/09 06:07:36;;;;;;;20.42;13.05;;;;;;;-4.26;100.00;101096.28;5072895;28;20029;-62
2022/03/09 06:10:01;;;;;;;21.38;12.93;;;;;;;-4.26;100.00;101101.41;5072596;28;20387;-62
2022/03/09 06:12:27;;;;;;;18.02;12.00;;;;;;;-4.31;100.00;101097.91;5073079;28;20039;-63
2022/03/09 06:14:52;;;;;;;23.55;11.63;;;;;;;-4.32;100.00;101102.97;5075269;28;20020;-62
2022/03/09 06:17:17;;;;;;;19.13;13.50;;;;;;;-4.35;100.00;101090.97;5076598;28;20057;-62
2022/03/09 06:19:43;;;;;;;17.63;12.60;;;;;;;-4.28;100.00;101095.38;5076432;28;20059;-62
2022/03/09 06:22:08;;;;;;;21.23;13.40;;;;;;;-4.26;100.00;101098.84;5076076;28;20048;-63
2022/03/09 06:24:33;;;;;;;31.60;12.63;;;;;;;-4.25;100.00;101098.00;5075199;28;20029;-63
2022/03/09 06:26:59;;;;;;;20.50;12.52;;;;;;;-4.27;100.00;101092.00;5071669;28;20459;-63
2022/03/09 06:29:25;;;;;;;20.60;13.15;;;;;;;-4.21;100.00;101107.50;5075801;28;20040;-63
2022/03/09 06:31:51;;;;;;;22.33;13.38;;;;;;;-4.19;100.00;101100.69;5076132;28;20364;-63
2022/03/09 06:34:16;;;;;;;20.85;13.20;;;;;;;-4.15;100.00;101107.63;5075745;28;20047;-63
2022/03/09 06:36:44;;;;;;;19.58;15.07;;;;;;;-4.10;100.00;101106.88;5075756;28;20475;-63
2022/03/09 06:39:13;;;;;;;21.60;13.13;;;;;;;-4.08;100.00;101102.63;5075813;28;20103;-63
2022/03/09 06:41:43;;;;;;;19.02;12.65;;;;;;;-3.98;100.00;101110.53;5091127;28;20078;-63
2022/03/09 06:44:09;;;;;;;22.50;14.32;;;;;;;-3.91;100.00;101111.50;5075276;28;20028;-63
2022/03/09 06:46:35;;;;;;;24.05;13.38;;;;;;;-3.83;100.00;101112.53;5075846;28;20048;-63
2022/03/09 06:49:00;;;;;;;19.42;12.85;;;;;;;-3.79;100.00;101111.78;5075778;28;20036;-63
2022/03/09 06:51:25;;;;;;;22.33;13.25;;;;;;;-3.69;100.00;101118.81;5075168;28;20447;-63
2022/03/09 06:53:51;;;;;;;22.17;13.20;;;;;;;-3.64;100.00;101118.03;5074627;28;20487;-63
2022/03/09 06:56:18;;;;;;;19.33;13.70;;;;;;;-3.53;100.00;101118.25;5074590;28;20023;-63
2022/03/09 06:58:44;;;;;;;19.15;13.05;;;;;;;-3.43;100.00;101122.72;5070651;28;20032;-63
2022/03/09 07:01:09;;;;;;;24.27;14.95;;;;;;;-3.36;100.00;101113.41;5075582;28;20046;-63
2022/03/09 07:03:34;;;;;;;22.88;14.00;;;;;;;-3.23;100.00;101120.47;5075075;28;20039;-63
2022/03/09 07:06:00;;;;;;;21.67;14.20;;;;;;;-3.11;100.00;101125.84;5073906;28;20074;-63
2022/03/09 07:08:25;;;;;;;21.48;13.25;;;;;;;-3.00;100.00;101126.88;5074190;28;20047;-63
2022/03/09 07:10:51;;;;;;;22.98;14.07;;;;;;;-2.91;100.00;101131.31;5063808;28;20024;-63
2022/03/09 07:13:16;;;;;;;20.52;13.40;;;;;;;-2.82;100.00;101134.00;5011713;28;20082;-63
2022/03/09 07:15:41;;;;;;;23.27;12.82;;;;;;;-2.70;100.00;101134.19;5029614;28;20016;-63
2022/03/09 07:18:07;;;;;;;19.33;13.90;;;;;;;-2.60;100.00;101138.63;5029507;28;20180;-63
2022/03/09 07:20:32;;;;;;;20.50;13.10;;;;;;;-2.50;100.00;101143.06;5030586;28;20038;-63
2022/03/09 07:22:58;;;;;;;16.58;12.52;;;;;;;-2.37;100.00;101146.69;5029780;28;20031;-63
2022/03/09 07:25:23;;;;;;;24.25;12.50;;;;;;;-2.29;100.00;101147.66;5029362;28;20900;-63
2022/03/09 07:27:48;;;;;;;21.83;13.00;;;;;;;-2.22;100.00;101145.19;5029427;28;20025;-63
2022/03/09 07:30:14;;;;;;;17.30;11.65;;;;;;;-2.06;100.00;101151.38;5029671;28;20028;-63
2022/03/09 07:32:40;;;;;;;20.48;13.38;;;;;;;-1.95;100.00;101144.66;5029267;28;20798;-63
2022/03/09 07:35:06;;;;;;;17.88;12.18;;;;;;;-1.81;100.00;101155.13;5050468;28;20040;-64
2022/03/09 07:37:32;;;;;;;18.17;12.65;;;;;;;-1.70;100.00;101140.69;5027658;28;20028;-64
2022/03/09 07:39:58;;;;;;;20.73;12.68;;;;;;;-1.54;100.00;101152.88;5026445;28;20040;-63
2022/03/09 07:42:23;;;;;;;23.15;10.30;;;;;;;-1.38;100.00;101159.03;5007161;28;20033;-64
2022/03/09 07:44:49;;;;;;;20.63;12.18;;;;;;;-1.23;100.00;101157.50;5028284;28;20409;-64
2022/03/09 07:47:14;;;;;;;28.05;12.70;;;;;;;-1.01;100.00;101163.72;5028156;28;20936;-64
2022/03/09 07:49:39;;;;;;;15.93;10.65;;;;;;;-0.86;100.00;101161.28;5048427;28;20107;-63
2022/03/09 07:52:05;;;;;;;15.65;11.32;;;;;;;-0.70;100.00;101162.25;5070608;28;20028;-64
2022/03/09 07:54:31;;;;;;;17.40;10.95;;;;;;;-0.60;100.00;101153.72;5072167;28;20016;-64
2022/03/09 07:56:57;;;;;;;18.00;10.52;;;;;;;-0.38;100.00;101159.91;5088864;28;20223;-64
2022/03/09 07:59:22;;;;;;;16.52;10.77;;;;;;;-0.22;100.00;101157.41;5055489;28;20059;-64
2022/03/09 08:01:52;;;;;;;16.33;9.85;;;;;;;-0.07;100.00;101151.50;5071495;28;20021;-64
2022/03/09 08:04:19;;;;;;;16.67;10.63;;;;;;;0.13;100.00;101149.00;5073248;28;20036;-64
2022/03/09 08:06:45;;;;;;;18.08;9.80;;;;;;;0.43;100.00;101162.03;5087126;28;20038;-63
2022/03/09 08:09:10;;;;;;;14.50;9.05;;;;;;;0.65;100.00;101160.34;5073730;28;20036;-63
2022/03/09 08:11:35;;;;;;;14.98;9.05;;;;;;;0.91;100.00;101169.03;5073338;28;20025;-64
2022/03/09 08:14:01;;;;;;;13.63;9.82;;;;;;;1.20;100.00;101166.44;5073655;28;20352;-64
2022/03/09 08:16:26;;;;;;;10.27;8.50;;;;;;;1.53;100.00;101162.13;5073193;28;20083;-64
2022/03/09 08:18:51;;;;;;;12.15;9.00;;;;;;;1.84;100.00;101155.16;5073860;28;20462;-64
2022/03/09 08:21:17;;;;;;;13.95;8.95;;;;;;;2.19;100.00;101159.38;5073538;28;20055;-64
2022/03/09 08:23:42;;;;;;;17.05;9.52;;;;;;;2.44;100.00;101163.56;5073380;28;20029;-64
2022/03/09 08:26:08;;;;;;;11.95;8.50;;;;;;;2.68;100.00;101170.34;5073197;28;20020;-63
2022/03/09 08:28:33;;;;;;;16.55;9.23;;;;;;;2.86;100.00;101173.72;5072169;28;20047;-64
2022/03/09 08:30:59;;;;;;;14.25;8.73;;;;;;;3.00;100.00;101169.31;5054958;28;20027;-64
2022/03/09 08:33:24;;;;;;;12.18;8.90;;;;;;;3.08;100.00;101164.91;5053384;28;20060;-67
2022/03/09 08:35:49;;;;;;;13.88;8.20;;;;;;;3.17;100.00;101176.09;5068379;28;20020;-64
2022/03/09 08:38:15;;;;;;;12.10;8.35;;;;;;;3.20;100.00;101176.06;5068075;28;20052;-63
2022/03/09 08:40:41;;;;;;;16.88;10.13;;;;;;;3.26;100.00;101176.00;5051655;28;20025;-64
2022/03/09 08:43:06;;;;;;;16.08;9.50;;;;;;;3.32;100.00;101173.38;5072393;28;20025;-63
2022/03/09 08:45:32;;;;;;;14.32;9.52;;;;;;;3.29;100.00;101175.97;5070427;28;20445;-63
2022/03/09 08:47:57;;;;;;;13.30;7.93;;;;;;;3.35;100.00;101183.72;5066919;28;20036;-63
2022/03/09 08:50:22;;;;;;;15.40;9.77;;;;;;;3.37;100.00;101184.59;5071914;28;20108;-63
2022/03/09 08:52:48;;;;;;;18.80;9.77;;;;;;;3.40;100.00;101185.44;5064059;28;20029;-63
2022/03/09 08:55:13;;;;;;;13.20;9.40;;;;;;;3.45;100.00;101185.38;5072458;28;20031;-63
2022/03/09 08:57:38;;;;;;;15.65;9.48;;;;;;;3.48;100.00;101186.22;5072736;28;20087;-63
2022/03/09 09:00:05;;;;;;;16.20;10.30;;;;;;;3.63;100.00;101182.63;5069833;28;20048;-63
2022/03/09 09:02:31;;;;;;;15.43;9.70;;;;;;;3.74;100.00;101175.59;5072718;28;20104;-63
2022/03/09 09:04:57;;;;;;;20.33;10.18;;;;;;;3.81;100.00;101185.06;5071641;28;20546;-63
2022/03/09 09:07:23;;;;;;;22.35;9.65;;;;;;;3.85;100.00;101184.13;5072530;28;20020;-63
2022/03/09 09:09:48;;;;;;;13.02;9.55;;;;;;;3.89;100.00;101183.22;5072502;28;20364;-63
2022/03/09 09:12:14;;;;;;;19.25;10.55;;;;;;;3.96;100.00;101184.88;5072286;28;20058;-63
2022/03/09 09:14:39;;;;;;;16.42;9.73;;;;;;;4.03;100.00;101177.88;5071938;28;20070;-64
2022/03/09 09:17:05;;;;;;;16.15;9.57;;;;;;;4.11;100.00;101187.31;5072343;28;20031;-64
2022/03/09 09:19:31;;;;;;;19.75;10.20;;;;;;;4.22;100.00;101189.81;5071301;28;20129;-63
2022/03/09 09:21:56;;;;;;;16.33;10.60;;;;;;;4.24;100.00;101182.84;5065465;28;20829;-64
2022/03/09 09:24:22;;;;;;;15.52;10.57;;;;;;;4.44;100.00;101190.41;5059880;28;20032;-64
2022/03/09 09:26:47;;;;;;;15.68;11.07;;;;;;;4.53;100.00;101195.47;5064100;28;20466;-64
2022/03/09 09:29:13;;;;;;;18.13;10.55;;;;;;;4.61;100.00;101199.72;5062456;28;20032;-64
2022/03/09 09:31:40;;;;;;;16.92;10.52;;;;;;;4.67;100.00;101190.94;5061859;28;20188;-64
2022/03/09 09:34:07;;;;;;;17.92;11.38;;;;;;;4.83;99.55;101196.84;5063515;28;20028;-64
2022/03/09 09:36:33;;;;;;;14.57;10.70;;;;;;;5.01;99.86;101202.63;5075711;28;20777;-64
2022/03/09 09:38:58;;;;;;;19.00;11.43;;;;;;;5.12;99.26;101203.34;5059072;28;20021;-64
2022/03/09 09:41:26;;;;;;;15.57;11.02;;;;;;;5.21;98.12;101202.31;5056166;28;20028;-64
2022/03/09 09:43:52;;;;;;;23.67;11.43;;;;;;;5.38;97.42;101204.66;5058789;28;20083;-64
2022/03/09 09:46:17;;;;;;;17.05;10.50;;;;;;;5.53;95.87;101204.44;5061780;28;20502;-64
2022/03/09 09:48:43;;;;;;;20.10;12.05;;;;;;;5.63;94.29;101200.78;5066171;28;20035;-64
2022/03/09 09:51:10;;;;;;;18.63;11.05;;;;;;;5.89;94.20;101188.16;5065395;28;20545;-64
2022/03/09 09:53:35;;;;;;;21.83;12.38;;;;;;;6.12;93.78;101192.94;5079289;28;20028;-64
2022/03/09 09:56:02;;;;;;;19.00;12.27;;;;;;;6.36;95.50;101181.16;5079667;28;20055;-64
2022/03/09 09:58:29;;;;;;;19.50;12.48;;;;;;;6.49;92.07;101185.25;5074887;28;20478;-64
2022/03/09 10:00:55;;;;;;;18.33;11.27;;;;;;;6.55;90.73;101177.31;5077457;28;20028;-64
2022/03/09 10:03:21;;;;;;;21.05;12.25;;;;;;;6.59;92.16;101171.13;5078672;28;20410;-64
2022/03/09 10:05:46;;;;;;;20.77;11.50;;;;;;;6.88;90.37;101179.16;5078706;28;20048;-64
2022/03/09 10:08:14;;;;;;;20.88;10.68;;;;;;;6.98;88.18;101179.81;5078826;28;20028;-64
2022/03/09 10:11:05;;;;;;;15.65;11.52;;;;;;;7.16;85.68;101168.94;5077913;28;20479;-63
2022/03/09 10:13:35;;;;;;;15.43;11.35;;;;;;;7.33;85.04;101181.59;5076309;28;20127;-64
2022/03/09 10:16:10;;;;;;;20.60;10.23;;;;;;;7.35;85.27;101179.81;5075792;28;20096;-63
2022/03/09 10:18:36;;;;;;;15.10;10.48;;;;;;;7.29;84.71;101172.13;5075514;28;20111;-64
2022/03/09 10:21:14;;;;;;;13.02;9.40;;;;;;;7.37;81.55;101189.31;5077386;28;20128;-63
2022/03/09 10:24:00;;;;;;;13.35;10.07;;;;;;;7.48;85.18;101184.69;5077470;28;20024;-63
2022/03/09 10:26:44;;;;;;;23.38;12.50;;;;;;;7.67;82.86;101188.56;5077447;28;20498;-63
2022/03/09 10:29:12;;;;;;;19.02;11.77;;;;;;;7.82;80.60;101191.69;5077321;28;20021;-63
2022/03/09 10:31:43;;;;;;;15.63;11.45;;;;;;;7.90;76.44;101192.34;5077855;28;20051;-63
2022/03/09 10:34:12;;;;;;;17.15;12.40;;;;;;;8.01;78.18;101188.53;5075478;28;20584;-63
2022/03/09 10:36:52;;;;;;;19.75;12.70;;;;;;;8.30;79.85;101184.28;5047549;28;20169;-64
2022/03/09 10:39:17;;;;;;;23.92;12.48;;;;;;;8.44;78.27;101183.00;5072917;28;20028;-64
2022/03/09 10:41:43;;;;;;;19.02;12.85;;;;;;;8.59;75.56;101186.91;5074142;28;20028;-65
2022/03/09 10:44:10;;;;;;;18.58;12.57;;;;;;;8.82;78.76;101189.72;5075233;28;20029;-64
2022/03/09 10:46:50;;;;;;;18.85;12.45;;;;;;;9.07;77.43;101181.97;5074265;28;20036;-63
2022/03/09 10:49:19;;;;;;;19.27;11.70;;;;;;;9.18;75.14;101182.50;5070208;28;20036;-63
2022/03/09 10:51:50;;;;;;;23.25;13.27;;;;;;;9.32;76.61;101184.66;5071597;28;20032;-64
2022/03/09 10:54:24;;;;;;;20.33;12.27;;;;;;;9.45;74.66;101176.34;5068470;28;20027;-63
2022/03/09 10:56:50;;;;;;;22.00;12.98;;;;;;;9.53;73.88;101165.63;5070471;28;20028;-63
2022/03/09 10:59:20;;;;;;;17.00;11.57;;;;;;;9.48;73.14;101164.88;5066965;28;20434;-64
2022/03/09 11:02:09;;;;;;;15.45;11.75;;;;;;;9.41;73.09;101159.00;5066791;28;20029;-63
2022/03/09 11:04:35;;;;;;;25.25;12.80;;;;;;;9.55;73.07;101161.16;5058433;28;20967;-64